M I D A S
Marine Information and Data Acquisition System
Tripno 1525 of the Zeeleeuw from 2008-07-24 07:07:13 to 2008-07-24 14:32:29
Back to CruiseResearch ActivitiesStationsMapUnderway DataData graphs

EquipmentUnitsComment
TimeDGPSUTC
LatitudeDGPSDM.mWGS84
LongitudeDGPSDM.mWGS84
TemperatureSBE03/SBE38deg celciusITS90
ConductivitySBE21S/mITS90
SalinitySBE21 Practical Salinity Units
ChlorophylAChelsea fluorimeterg/lCalibrated in Aceton
Missing or incorrect values are displayed as -999
Sea surface data collected by the RV Zeeleeuw from 2008-07-24 07:07:16 to 2008-07-24 14:45:47
Time Latitude Longitude Temperature Conductivity Salinity ChlorophylA
2008-07-24 07:08:20 51°13.627 2°56.023 21.7473 0.021626 0.110125 -1.557753
2008-07-24 07:09:21 51°13.652 2°55.944 21.7145 0.021523 0.109622 -1.592577
2008-07-24 07:10:21 51°13.681 2°55.848 21.7727 0.021729 0.11065 -1.557753
2008-07-24 07:11:20 51°13.729 2°55.759 21.7659 0.021832 0.111175 -1.592577
2008-07-24 07:12:20 51°13.757 2°55.686 21.831 0.022141 0.11272 -1.592577
2008-07-24 07:13:17 51°13.768 2°55.698 21.7934 0.021626 0.110166 -1.592577
2008-07-24 07:14:21 51°13.77 2°55.676 21.8459 0.02317 0.11787 -1.557753
2008-07-24 07:15:19 51°13.868 2°55.613 21.6859 0.021626 0.110174 -1.557753
2008-07-24 07:16:16 51°13.98 2°55.533 21.7549 0.021832 0.111211 -1.592577
2008-07-24 07:17:17 51°14.083 2°55.449 21.8228 0.021832 0.11122 -1.592577
2008-07-24 07:18:17 51°14.207 2°55.325 21.7896 0.021729 0.110717 -1.592577
2008-07-24 07:19:17 51°14.33 2°55.131 21.7992 0.021832 0.111233 -1.557753
2008-07-24 07:20:17 51°14.435 2°54.864 21.7025 0.021523 0.109704 -1.557753
2008-07-24 07:21:17 51°14.526 2°54.567 21.7603 0.022347 0.113788 -1.592577
2008-07-24 07:22:17 51°14.609 2°54.265 21.7569 0.022141 0.1128 -1.592577
2008-07-24 07:23:17 51°14.699 2°53.966 21.7314 0.022655 0.115366 -1.557753
2008-07-24 07:24:17 51°14.797 2°53.679 21.7408 0.022964 0.116906 -1.592577
2008-07-24 07:25:17 51°14.893 2°53.393 21.7898 0.022552 0.114868 -1.557753
2008-07-24 07:26:17 51°14.987 2°53.104 21.787 0.023273 0.118487 -1.592577
2008-07-24 07:27:18 51°15.082 2°52.808 21.7698 0.023478 0.119516 -1.557753
2008-07-24 07:28:17 51°15.175 2°52.521 21.8036 0.02317 0.117995 -1.592577
2008-07-24 07:29:17 51°15.273 2°52.231 21.789 0.022347 0.113966 -1.557753
2008-07-24 07:30:17 51°15.373 2°51.94 21.8135 0.023376 0.119124 -1.592577
2008-07-24 07:31:17 51°15.473 2°51.649 21.8075 0.022449 0.114511 -1.592577
2008-07-24 07:32:18 51°15.58 2°51.357 21.8118 0.023581 0.120207 -1.557753
2008-07-24 07:33:17 51°15.684 2°51.078 21.8344 0.023067 0.117614 -1.557753
2008-07-24 07:34:17 51°15.783 2°50.789 21.8445 0.024302 0.123864 -1.557753
2008-07-24 07:35:17 51°15.88 2°50.496 21.8161 0.02317 0.118258 -1.592577
2008-07-24 07:36:17 51°16.01 2°50.243 21.8462 0.023376 0.119399 -1.592577
2008-07-24 07:37:17 51°16.179 2°50.063 21.8616 0.024199 0.123519 -1.557753
2008-07-24 07:38:17 51°16.362 2°49.919 21.8695 0.023787 0.121628 -1.557753
2008-07-24 07:39:17 51°16.547 2°49.785 21.8758 0.024919 0.127376 -1.592577
2008-07-24 07:40:17 51°16.695 2°49.698 21.8839 0.026154 0.133706 -1.557753
2008-07-24 07:41:18 51°16.749 2°49.682 21.9232 0.027286 0.139559 -1.557753
2008-07-24 07:42:17 51°16.755 2°49.668 21.8768 0.024199 0.12399 -1.592577
2008-07-24 07:43:16 51°16.764 2°49.672 21.9298 0.024508 0.125595 -1.557753
2008-07-24 07:44:16 51°16.767 2°49.665 21.9445 0.02317 0.118805 -1.592577
2008-07-24 07:45:16 51°16.769 2°49.653 21.9364 0.023273 0.11933 -1.592577
2008-07-24 07:46:16 51°16.77 2°49.636 21.9511 0.023067 0.118259 -1.557753
2008-07-24 07:47:16 51°16.77 2°49.614 21.9627 0.022964 0.11776 -1.557753
2008-07-24 07:48:16 51°16.77 2°49.59 21.9668 0.023684 0.121443 -1.557753
2008-07-24 07:49:17 51°16.769 2°49.564 21.9847 0.023993 0.123012 -1.592577
2008-07-24 07:50:17 51°16.772 2°49.542 22.0164 0.025022 0.128202 -1.557753
2008-07-24 07:51:16 51°16.874 2°49.478 22.0001 0.022141 0.113639 -1.592577
2008-07-24 07:52:18 51°17.055 2°49.333 21.9799 0.021523 0.110585 -1.592577
2008-07-24 07:53:16 51°17.223 2°49.17 21.9993 0.021729 0.111637 -1.592577
2008-07-24 07:54:16 51°17.396 2°49.001 21.998 0.022244 0.114231 -1.557753
2008-07-24 07:55:16 51°17.571 2°48.833 22.0227 0.022038 0.113156 -1.557753
2008-07-24 07:56:17 51°17.748 2°48.664 22.0289 0.022655 0.116377 -1.557753
2008-07-24 07:57:16 51°17.92 2°48.501 22.023 0.021729 0.111759 -1.557753
2008-07-24 07:58:16 51°18.097 2°48.334 22.0511 0.022552 0.115849 -1.557753
2008-07-24 07:59:18 51°18.28 2°48.162 22.0632 0.022141 0.113915 -1.557753
2008-07-24 08:00:17 51°18.454 2°47.997 22.0711 0.022347 0.11495 -1.557753
2008-07-24 08:01:18 51°18.635 2°47.826 22.0733 0.022244 0.114425 -1.592577
2008-07-24 08:02:16 51°18.809 2°47.673 22.0798 0.022758 0.117074 -1.557753
2008-07-24 08:03:18 51°18.991 2°47.498 22.0956 0.022347 0.114988 -1.592577
2008-07-24 08:04:17 51°19.165 2°47.327 22.1005 0.021935 0.112935 -1.592577
2008-07-24 08:05:17 51°19.343 2°47.155 22.104 0.022244 0.11454 -1.557753
2008-07-24 08:06:16 51°19.519 2°46.994 22.1136 0.02317 0.119252 -1.557753
2008-07-24 08:07:17 51°19.699 2°46.83 22.1327 0.022552 0.116154 -1.557753
2008-07-24 08:08:18 51°19.881 2°46.668 22.1438 0.024096 0.124035 -1.592577
2008-07-24 08:09:16 51°20.054 2°46.511 22.1519 0.022552 0.116235 -1.557753
2008-07-24 08:10:18 51°20.238 2°46.337 22.1566 0.02317 0.119376 -1.557753
2008-07-24 08:11:16 51°20.413 2°46.175 22.1727 0.022244 0.114699 -1.557753
2008-07-24 08:12:17 51°20.596 2°46.004 22.1666 0.022552 0.116403 -1.557753
2008-07-24 08:13:16 51°20.773 2°45.841 22.187 0.023273 0.119978 -1.557753
2008-07-24 08:14:16 51°20.958 2°45.688 22.1846 0.023581 0.121563 -1.557753
2008-07-24 08:15:18 51°21.149 2°45.531 22.2132 0.023273 0.120033 -1.592577
2008-07-24 08:16:16 51°21.32 2°45.369 22.1992 0.022244 0.114827 -1.557753
2008-07-24 08:17:18 51°21.505 2°45.198 22.221 0.023479 0.121124 -1.557753
2008-07-24 08:18:17 51°21.683 2°45.036 22.2337 0.025022 0.128956 -1.592577
2008-07-24 08:19:17 51°21.863 2°44.869 22.2215 0.022347 0.115397 -1.557753
2008-07-24 08:20:17 51°22.045 2°44.705 22.2446 0.022038 0.113909 -1.557753
2008-07-24 08:21:18 51°22.228 2°44.539 22.2344 0.022655 0.117023 -1.592577
2008-07-24 08:22:17 51°22.404 2°44.376 22.2619 0.023787 0.122851 -1.557753
2008-07-24 08:23:17 51°22.583 2°44.21 22.268 0.023273 0.120264 -1.592577
2008-07-24 08:24:17 51°22.761 2°44.043 22.2883 0.022141 0.114518 -1.557753
2008-07-24 08:25:17 51°22.942 2°43.884 22.291 0.023684 0.122346 -1.592577
2008-07-24 08:26:17 51°23.123 2°43.722 22.2907 0.024508 0.126597 -1.557753
2008-07-24 08:27:17 51°23.302 2°43.554 22.2946 0.024096 0.124587 -1.592577
2008-07-24 08:28:18 51°23.486 2°43.382 22.2986 0.022347 0.115655 -1.557753
2008-07-24 08:29:17 51°23.664 2°43.223 22.323 0.024302 0.12561 -1.592577
2008-07-24 08:30:17 51°23.844 2°43.058 22.3339 0.023273 0.120408 -1.557753
2008-07-24 08:31:17 51°24.022 2°42.892 22.3263 0.02245 0.116247 -1.592577
2008-07-24 08:32:17 51°24.203 2°42.731 22.3468 0.024199 0.125216 -1.557753
2008-07-24 08:33:17 51°24.384 2°42.566 22.3631 0.022347 0.11576 -1.557753
2008-07-24 08:34:17 51°24.565 2°42.409 22.3642 0.023684 0.122602 -1.557753
2008-07-24 08:35:18 51°24.749 2°42.244 22.3791 0.02245 0.116416 -1.592577
2008-07-24 08:36:17 51°24.926 2°42.083 22.3864 0.023376 0.121107 -1.557753
2008-07-24 08:37:17 51°25.108 2°41.931 22.4017 0.023479 0.121661 -1.557753
2008-07-24 08:38:17 51°25.289 2°41.777 22.404 0.022861 0.118554 -1.592577
2008-07-24 08:39:17 51°25.469 2°41.613 22.4199 0.022655 0.1175 -1.592577
2008-07-24 08:40:17 51°25.649 2°41.45 22.4353 0.022244 0.115436 -1.592577
2008-07-24 08:41:18 51°25.831 2°41.281 22.4345 0.022758 0.118064 -1.557753
2008-07-24 08:42:18 51°26.012 2°41.121 22.4181 0.02245 0.116489 -1.592577
2008-07-24 08:43:17 51°26.19 2°40.963 22.4471 0.022552 0.11705 -1.557753
2008-07-24 08:44:18 51°26.373 2°40.799 22.4496 0.024199 0.125485 -1.592577
2008-07-24 08:45:17 51°26.55 2°40.635 22.4679 0.022141 0.114976 -1.592577
2008-07-24 08:46:18 51°26.739 2°40.491 22.4793 0.023376 0.121312 -1.592577
2008-07-24 08:47:17 51°26.936 2°40.458 22.4857 0.025228 0.130809 -1.592577
2008-07-24 08:48:18 51°27.14 2°40.459 22.4821 0.026566 0.137723 -1.592577
2008-07-24 08:49:17 51°27.336 2°40.466 22.484 0.024919 0.129259 -1.592577
2008-07-24 08:50:18 51°27.541 2°40.461 22.5063 0.026977 0.139832 -1.557753
2008-07-24 08:51:17 51°27.738 2°40.46 22.5177 0.024713 0.128237 -1.592577
2008-07-24 08:52:17 51°27.938 2°40.481 22.5245 0.024096 0.125131 -1.557753
2008-07-24 08:53:18 51°28.128 2°40.581 22.5408 0.025022 0.129871 -1.557753
2008-07-24 08:54:17 51°28.287 2°40.752 22.5341 0.024816 0.128867 -1.592577
2008-07-24 08:55:18 51°28.452 2°40.931 22.5445 0.024199 0.125666 -1.557753
2008-07-24 08:56:18 51°28.613 2°41.105 22.5665 0.022861 0.118823 -1.592577
2008-07-24 08:57:17 51°28.772 2°41.279 22.5577 0.022141 0.115193 -1.592577
2008-07-24 08:58:18 51°28.937 2°41.456 22.5774 0.022244 0.115746 -1.557753
2008-07-24 08:59:18 51°29.092 2°41.641 22.5871 0.023273 0.121001 -1.557753
2008-07-24 09:00:18 51°29.24 2°41.841 22.5853 0.022758 0.118377 -1.557753
2008-07-24 09:01:18 51°29.368 2°42.073 22.6068 0.023273 0.121048 -1.592577
2008-07-24 09:02:18 51°29.488 2°42.317 22.6189 0.02245 0.116859 -1.592577
2008-07-24 09:03:17 51°29.609 2°42.553 22.6238 0.022244 0.115849 -1.557753
2008-07-24 09:04:17 51°29.725 2°42.802 22.6245 0.022552 0.117375 -1.557753
2008-07-24 09:05:17 51°29.843 2°43.048 22.6404 0.022244 0.115845 -1.557753
2008-07-24 09:06:17 51°29.957 2°43.295 22.6466 0.022347 0.116387 -1.557753
2008-07-24 09:07:18 51°30.068 2°43.55 22.6335 0.02142 0.111696 -1.557753
2008-07-24 09:08:17 51°30.159 2°43.811 22.6579 0.022038 0.114873 -1.557753
2008-07-24 09:09:17 51°30.249 2°44.077 22.672 0.022141 0.115379 -1.592577
2008-07-24 09:10:17 51°30.334 2°44.345 22.6877 0.021935 0.114349 -1.557753
2008-07-24 09:11:16 51°30.43 2°44.598 22.6749 0.022141 0.115406 -1.592577
2008-07-24 09:12:17 51°30.529 2°44.859 22.6879 0.022141 0.115452 -1.592577
2008-07-24 09:13:18 51°30.622 2°45.126 22.6999 0.021935 0.114392 -1.592577
2008-07-24 09:14:18 51°30.718 2°45.384 22.7064 0.021729 0.113375 -1.592577
2008-07-24 09:15:18 51°30.812 2°45.646 22.7054 0.021832 0.113886 -1.592577
2008-07-24 09:16:18 51°30.912 2°45.9 22.7195 0.022038 0.114948 -1.557753
2008-07-24 09:17:17 51°31.008 2°46.152 22.7375 0.022347 0.116547 -1.557753
2008-07-24 09:18:18 51°31.099 2°46.418 22.7535 0.022552 0.117646 -1.557753
2008-07-24 09:19:17 51°31.194 2°46.67 22.7489 0.022038 0.115065 -1.557753
2008-07-24 09:20:17 51°31.287 2°46.93 22.749 0.021729 0.113442 -1.557753
2008-07-24 09:21:17 51°31.384 2°47.186 22.7611 0.022038 0.115024 -1.557753
2008-07-24 09:22:17 51°31.474 2°47.451 22.7673 0.021935 0.114528 -1.592577
2008-07-24 09:23:18 51°31.566 2°47.719 22.7642 0.023273 0.121395 -1.592577
2008-07-24 09:24:18 51°31.661 2°47.978 22.7853 0.022141 0.115593 -1.557753
2008-07-24 09:25:18 51°31.768 2°48.224 22.7999 0.021935 0.114602 -1.592577
2008-07-24 09:26:18 51°31.87 2°48.47 22.7958 0.022552 0.117746 -1.592577
2008-07-24 09:27:18 51°31.966 2°48.72 22.8114 0.021729 0.113542 -1.557753
2008-07-24 09:28:16 51°32.049 2°48.972 22.8146 0.021935 0.114594 -1.557753
2008-07-24 09:29:16 51°32.135 2°49.234 22.825 0.022038 0.115166 -1.557753
2008-07-24 09:30:17 51°32.23 2°49.492 22.8373 0.021832 0.114099 -1.557753
2008-07-24 09:31:17 51°32.326 2°49.744 22.8317 0.021729 0.113595 -1.592577
2008-07-24 09:32:17 51°32.419 2°49.997 22.8546 0.022038 0.115182 -1.592577
2008-07-24 09:33:17 51°32.512 2°50.25 22.8401 0.021935 0.114689 -1.557753
2008-07-24 09:34:18 51°32.605 2°50.511 22.8408 0.021318 0.111517 -1.557753
2008-07-24 09:35:17 51°32.689 2°50.768 22.8712 0.021832 0.114164 -1.557753
2008-07-24 09:36:18 51°32.78 2°51.031 22.8797 0.021626 0.113109 -1.557753
2008-07-24 09:37:18 51°32.877 2°51.279 22.8894 0.022244 0.116323 -1.592577
2008-07-24 09:38:18 51°32.977 2°51.526 22.892 0.022038 0.11528 -1.557753
2008-07-24 09:39:17 51°33.07 2°51.774 22.8841 0.022655 0.118465 -1.557753
2008-07-24 09:40:18 51°33.168 2°52.032 22.9004 0.021729 0.113752 -1.592577
2008-07-24 09:41:18 51°33.261 2°52.289 22.9241 0.022552 0.117942 -1.557753
2008-07-24 09:42:17 51°33.357 2°52.539 22.9303 0.022141 0.115863 -1.557753
2008-07-24 09:43:18 51°33.451 2°52.8 22.9115 0.022141 0.115879 -1.592577
2008-07-24 09:44:17 51°33.54 2°53.055 22.9399 0.022141 0.11588 -1.557753
2008-07-24 09:45:18 51°33.64 2°53.312 22.9251 0.022552 0.118022 -1.557753
2008-07-24 09:46:17 51°33.73 2°53.567 22.9567 0.022244 0.116432 -1.592577
2008-07-24 09:47:17 51°33.827 2°53.82 22.9644 0.021935 0.114843 -1.557753
2008-07-24 09:48:18 51°33.924 2°54.075 22.9662 0.021832 0.114334 -1.592577
2008-07-24 09:49:18 51°34.016 2°54.326 22.9607 0.021832 0.114329 -1.557753
2008-07-24 09:50:18 51°34.104 2°54.582 22.9766 0.022038 0.115406 -1.592577
2008-07-24 09:51:18 51°34.188 2°54.841 22.9756 0.021318 0.111712 -1.557753
2008-07-24 09:52:18 51°34.276 2°55.097 22.9764 0.021626 0.113307 -1.592577
2008-07-24 09:53:17 51°34.369 2°55.342 22.9972 0.021729 0.113839 -1.592577
2008-07-24 09:54:18 51°34.464 2°55.596 23.0163 0.021832 0.114396 -1.557753
2008-07-24 09:55:17 51°34.555 2°55.844 22.9966 0.021215 0.111229 -1.557753
2008-07-24 09:56:18 51°34.646 2°56.104 23.0227 0.022038 0.115472 -1.592577
2008-07-24 09:57:17 51°34.737 2°56.351 23.018 0.021729 0.113884 -1.592577
2008-07-24 09:58:18 51°34.831 2°56.607 23.0257 0.021729 0.113903 -1.557753
2008-07-24 09:59:18 51°34.921 2°56.863 23.0469 0.021832 0.114436 -1.557753
2008-07-24 10:00:18 51°35.012 2°57.115 23.0477 0.022038 0.1155 -1.557753
2008-07-24 10:01:17 51°35.102 2°57.361 23.0547 0.021215 0.111264 -1.592577
2008-07-24 10:02:18 51°35.195 2°57.612 23.0626 0.021832 0.114464 -1.592577
2008-07-24 10:03:18 51°35.287 2°57.861 23.059 0.021626 0.113424 -1.592577
2008-07-24 10:04:18 51°35.366 2°58.119 23.0398 0.021832 0.114476 -1.557753
2008-07-24 10:05:18 51°35.35 2°58.407 23.0838 0.024096 0.126163 -1.557753
2008-07-24 10:06:18 51°35.284 2°58.691 23.1106 0.022038 0.115553 -1.592577
2008-07-24 10:07:17 51°35.205 2°58.961 23.0823 0.022347 0.117217 -1.557753
2008-07-24 10:08:16 51°35.089 2°59.204 23.1089 0.022244 0.116681 -1.557753
2008-07-24 10:09:16 51°34.971 2°59.452 23.0911 0.020906 0.10981 -1.592577
2008-07-24 10:10:18 51°34.844 2°59.705 23.1211 0.021318 0.111928 -1.557753
2008-07-24 10:11:17 51°34.694 2°59.904 23.127 0.021935 0.115119 -1.592577
2008-07-24 10:12:17 51°34.539 3°0.104 23.1415 0.021318 0.11194 -1.557753
2008-07-24 10:13:17 51°34.36 3°0.215 23.1133 0.024302 0.127362 -1.557753
2008-07-24 10:14:17 51°34.197 3°0.005 23.1569 0.027595 0.144527 -1.592577
2008-07-24 10:15:18 51°34.022 2°59.787 23.1535 0.021935 0.115126 -1.557753
2008-07-24 10:16:17 51°33.843 2°59.595 23.1623 0.021215 0.111419 -1.557753
2008-07-24 10:17:17 51°33.665 2°59.391 23.164 0.021421 0.112488 -1.557753
2008-07-24 10:18:17 51°33.488 2°59.184 23.1595 0.021421 0.112503 -1.557753
2008-07-24 10:19:17 51°33.312 2°58.974 23.1727 0.02245 0.117816 -1.557753
2008-07-24 10:20:18 51°33.137 2°58.754 23.1772 0.021626 0.11357 -1.557753
2008-07-24 10:21:17 51°32.97 2°58.535 23.2083 0.021626 0.113567 -1.557753
2008-07-24 10:22:17 51°32.797 2°58.318 23.1965 0.022141 0.116219 -1.557753
2008-07-24 10:23:17 51°32.625 2°58.096 23.1945 0.021421 0.112509 -1.557753
2008-07-24 10:24:17 51°32.454 2°57.87 23.2487 0.022038 0.115689 -1.557753
2008-07-24 10:25:17 51°32.289 2°57.632 23.2311 0.021523 0.11304 -1.557753
2008-07-24 10:26:17 51°32.126 2°57.389 23.255 0.021523 0.113037 -1.557753
2008-07-24 10:27:17 51°31.969 2°57.139 23.2632 0.021112 0.110915 -1.557753
2008-07-24 10:28:17 51°31.809 2°56.89 23.2466 0.021112 0.11092 -1.557753
2008-07-24 10:29:17 51°31.673 2°56.609 23.2254 0.021318 0.111984 -1.557753
2008-07-24 10:30:17 51°31.552 2°56.31 23.2844 0.02245 0.117825 -1.557753
2008-07-24 10:31:17 51°31.431 2°56.01 23.2648 0.021112 0.110915 -1.557753
2008-07-24 10:32:17 51°31.327 2°55.693 23.2784 0.021421 0.112509 -1.557753
2008-07-24 10:33:17 51°31.222 2°55.376 23.2889 0.021112 0.110921 -1.557753
2008-07-24 10:34:17 51°31.117 2°55.056 23.2882 0.022244 0.116756 -1.557753
2008-07-24 10:35:17 51°31.009 2°54.737 23.2997 0.021112 0.110913 -1.592577
2008-07-24 10:36:17 51°30.895 2°54.424 23.3187 0.022141 0.116221 -1.557753
2008-07-24 10:37:17 51°30.787 2°54.105 23.3362 0.021112 0.110913 -1.557753
2008-07-24 10:38:17 51°30.678 2°53.784 23.3504 0.021215 0.111441 -1.557753
2008-07-24 10:39:17 51°30.577 2°53.464 23.3247 0.021729 0.114099 -1.557753
2008-07-24 10:40:17 51°30.476 2°53.144 23.3435 0.02245 0.117807 -1.557753
2008-07-24 10:41:17 51°30.372 2°52.822 23.3738 0.024611 0.129005 -1.557753
2008-07-24 10:42:17 51°30.263 2°52.502 23.3564 0.021523 0.11303 -1.592577
2008-07-24 10:43:17 51°30.154 2°52.184 23.3618 0.021626 0.11356 -1.557753
2008-07-24 10:44:18 51°30.048 2°51.857 23.394 0.020597 0.108258 -1.557753
2008-07-24 10:45:18 51°29.938 2°51.54 23.3929 0.021318 0.111969 -1.592577
2008-07-24 10:46:17 51°29.829 2°51.229 23.3864 0.021626 0.113558 -1.557753
2008-07-24 10:47:17 51°29.721 2°50.908 23.3641 0.021729 0.114085 -1.557753
2008-07-24 10:48:17 51°29.615 2°50.584 23.3727 0.021523 0.113027 -1.557753
2008-07-24 10:49:17 51°29.505 2°50.265 23.4053 0.021215 0.111422 -1.557753
2008-07-24 10:50:17 51°29.395 2°49.944 23.4283 0.021832 0.114614 -1.557753
2008-07-24 10:51:17 51°29.29 2°49.618 23.4381 0.021421 0.112488 -1.557753
2008-07-24 10:52:17 51°29.185 2°49.29 23.4521 0.021832 0.114615 -1.592577
2008-07-24 10:53:18 51°29.08 2°48.953 23.4557 0.021832 0.114608 -1.557753
2008-07-24 10:54:18 51°28.978 2°48.62 23.4573 0.021523 0.113013 -1.557753
2008-07-24 10:55:18 51°28.878 2°48.288 23.453 0.021009 0.11036 -1.592577
2008-07-24 10:56:18 51°28.777 2°47.959 23.4766 0.021112 0.110886 -1.557753
2008-07-24 10:57:17 51°28.684 2°47.627 23.4869 0.021318 0.111942 -1.557753
2008-07-24 10:58:18 51°28.586 2°47.283 23.4561 0.021318 0.111943 -1.557753
2008-07-24 10:59:17 51°28.487 2°46.956 23.5115 0.021729 0.114059 -1.592577
2008-07-24 11:00:18 51°28.39 2°46.611 23.525 0.021832 0.114587 -1.557753
2008-07-24 11:01:18 51°28.298 2°46.271 23.5061 0.021729 0.114049 -1.557753
2008-07-24 11:02:17 51°28.212 2°45.932 23.5186 0.022552 0.118309 -1.557753
2008-07-24 11:03:18 51°28.115 2°45.586 23.5219 0.021523 0.112994 -1.557753
2008-07-24 11:04:17 51°28.023 2°45.252 23.5088 0.021626 0.113522 -1.557753
2008-07-24 11:05:18 51°27.93 2°44.905 23.5496 0.021832 0.114584 -1.557753
2008-07-24 11:06:17 51°27.841 2°44.568 23.5207 0.020906 0.109805 -1.557753
2008-07-24 11:07:18 51°27.752 2°44.217 23.5339 0.021318 0.11193 -1.557753
2008-07-24 11:08:18 51°27.671 2°43.865 23.5368 0.021318 0.111919 -1.557753
2008-07-24 11:09:18 51°27.555 2°43.544 23.6017 0.021421 0.112435 -1.557753
2008-07-24 11:10:18 51°27.36 2°43.388 23.6109 0.0207 0.10876 -1.557753
2008-07-24 11:11:17 51°27.155 2°43.403 23.6174 0.022038 0.115648 -1.557753
2008-07-24 11:12:18 51°26.982 2°43.56 23.587 0.0207 0.108738 -1.557753
2008-07-24 11:13:17 51°26.814 2°43.722 23.5997 0.021523 0.113004 -1.557753
2008-07-24 11:14:18 51°26.658 2°43.916 23.6189 0.0207 0.108744 -1.557753
2008-07-24 11:15:18 51°26.535 2°44.141 23.6466 0.020391 0.107162 -1.592577
2008-07-24 11:16:18 51°26.495 2°44.414 23.6402 0.020597 0.108204 -1.592577
2008-07-24 11:17:18 51°26.522 2°44.679 23.6192 0.021215 0.111402 -1.557753
2008-07-24 11:18:18 51°26.562 2°44.945 23.6316 0.021523 0.113001 -1.557753
2008-07-24 11:19:18 51°26.591 2°45.215 23.6515 0.021729 0.114049 -1.557753
2008-07-24 11:20:17 51°26.629 2°45.477 23.6408 0.021729 0.11405 -1.557753
2008-07-24 11:21:18 51°26.67 2°45.745 23.6487 0.021832 0.114582 -1.592577
2008-07-24 11:22:17 51°26.704 2°46.007 23.6929 0.022552 0.118315 -1.557753
2008-07-24 11:23:18 51°26.78 2°46.253 23.6649 0.021421 0.112435 -1.557753
2008-07-24 11:24:18 51°26.85 2°46.498 23.6653 0.021832 0.114559 -1.557753
2008-07-24 11:25:18 51°26.913 2°46.749 23.6924 0.021626 0.113505 -1.557753
2008-07-24 11:26:18 51°26.991 2°46.988 23.6615 0.020803 0.109289 -1.557753
2008-07-24 11:27:17 51°27.056 2°47.233 23.6972 0.021421 0.112454 -1.557753
2008-07-24 11:28:18 51°27.121 2°47.487 23.684 0.021523 0.112982 -1.592577
2008-07-24 11:29:17 51°27.184 2°47.734 23.6912 0.021009 0.110324 -1.557753
2008-07-24 11:30:18 51°27.247 2°47.991 23.7062 0.021009 0.110344 -1.557753
2008-07-24 11:31:18 51°27.312 2°48.242 23.7227 0.021523 0.113004 -1.592577
2008-07-24 11:32:17 51°27.38 2°48.486 23.7347 0.021729 0.114038 -1.557753
2008-07-24 11:33:18 51°27.448 2°48.74 23.7272 0.021112 0.110858 -1.557753
2008-07-24 11:34:18 51°27.521 2°48.984 23.7315 0.021215 0.111388 -1.557753
2008-07-24 11:35:17 51°27.59 2°49.228 23.7523 0.021318 0.111904 -1.557753
2008-07-24 11:36:17 51°27.658 2°49.475 23.7577 0.021523 0.112987 -1.557753
2008-07-24 11:37:18 51°27.723 2°49.732 23.7748 0.021729 0.114033 -1.557753
2008-07-24 11:38:17 51°27.792 2°49.979 23.7607 0.021729 0.114042 -1.557753
2008-07-24 11:39:18 51°27.864 2°50.235 23.7781 0.021626 0.113465 -1.592577
2008-07-24 11:40:17 51°27.934 2°50.483 23.7739 0.021421 0.112451 -1.557753
2008-07-24 11:41:17 51°28.006 2°50.733 23.7989 0.021935 0.115076 -1.557753
2008-07-24 11:42:18 51°28.085 2°50.982 23.7948 0.021215 0.11137 -1.557753
2008-07-24 11:43:18 51°28.162 2°51.227 23.793 0.021318 0.111896 -1.557753
2008-07-24 11:44:18 51°28.238 2°51.473 23.8128 0.021215 0.111367 -1.557753
2008-07-24 11:45:17 51°28.31 2°51.718 23.8238 0.021729 0.114021 -1.557753
2008-07-24 11:46:17 51°28.382 2°51.967 23.8318 0.021626 0.113443 -1.557753
2008-07-24 11:47:17 51°28.454 2°52.216 23.8311 0.021421 0.11242 -1.557753
2008-07-24 11:48:17 51°28.524 2°52.468 23.8405 0.021421 0.11242 -1.557753
2008-07-24 11:49:17 51°28.599 2°52.718 23.8235 0.021626 0.113465 -1.557753
2008-07-24 11:50:17 51°28.672 2°52.97 23.8447 0.021523 0.112922 -1.557753
2008-07-24 11:51:18 51°28.751 2°53.222 23.8539 0.021421 0.112415 -1.557753
2008-07-24 11:52:18 51°28.821 2°53.475 23.8678 0.021421 0.112393 -1.592577
2008-07-24 11:53:18 51°28.9 2°53.72 23.8711 0.021729 0.113978 -1.557753
2008-07-24 11:54:17 51°28.977 2°53.961 23.8723 0.021421 0.1124 -1.557753
2008-07-24 11:55:17 51°29.063 2°54.198 23.8645 0.021421 0.112396 -1.557753
2008-07-24 11:56:17 51°29.146 2°54.44 23.8859 0.021626 0.113445 -1.557753
2008-07-24 11:57:17 51°29.229 2°54.684 23.8922 0.021421 0.112389 -1.557753
2008-07-24 11:58:17 51°29.32 2°54.919 23.9022 0.021523 0.112914 -1.557753
2008-07-24 11:59:17 51°29.409 2°55.155 23.9074 0.021729 0.113972 -1.557753
2008-07-24 12:00:18 51°29.494 2°55.403 23.9054 0.021421 0.112367 -1.592577
2008-07-24 12:01:17 51°29.578 2°55.64 23.9321 0.022038 0.115544 -1.557753
2008-07-24 12:02:17 51°29.672 2°55.872 23.9267 0.021832 0.114471 -1.557753
2008-07-24 12:03:17 51°29.766 2°56.105 23.9235 0.021935 0.115004 -1.557753
2008-07-24 12:04:18 51°29.859 2°56.344 23.9316 0.021729 0.113953 -1.592577
2008-07-24 12:05:18 51°29.952 2°56.579 23.938 0.021626 0.113422 -1.557753
2008-07-24 12:06:17 51°30.037 2°56.817 23.9567 0.022038 0.115557 -1.557753
2008-07-24 12:07:18 51°30.127 2°57.063 23.9455 0.022038 0.115518 -1.592577
2008-07-24 12:08:18 51°30.22 2°57.299 23.9734 0.021626 0.113421 -1.557753
2008-07-24 12:09:18 51°30.315 2°57.533 23.9662 0.022038 0.115541 -1.557753
2008-07-24 12:10:17 51°30.396 2°57.776 23.9705 0.021832 0.114488 -1.557753
2008-07-24 12:11:17 51°30.481 2°58.023 23.971 0.022141 0.116072 -1.557753
2008-07-24 12:12:18 51°30.574 2°58.265 23.9799 0.022038 0.115506 -1.557753
2008-07-24 12:13:18 51°30.669 2°58.501 23.9686 0.021523 0.112886 -1.557753
2008-07-24 12:14:17 51°30.757 2°58.739 24 0.021626 0.113379 -1.557753
2008-07-24 12:15:18 51°30.837 2°58.994 24.0011 0.021523 0.112843 -1.557753
2008-07-24 12:16:18 51°30.927 2°59.236 24.0177 0.021626 0.113409 -1.592577
2008-07-24 12:17:18 51°31.01 2°59.484 24.011 0.021318 0.111821 -1.557753
2008-07-24 12:18:18 51°31.095 2°59.727 24.0318 0.021935 0.115002 -1.557753
2008-07-24 12:19:17 51°31.18 2°59.966 24.0364 0.021935 0.115013 -1.557753
2008-07-24 12:20:17 51°31.272 3°0.204 24.035 0.021729 0.113943 -1.557753
2008-07-24 12:21:18 51°31.365 3°0.444 24.0388 0.021832 0.11446 -1.592577
2008-07-24 12:22:18 51°31.461 3°0.677 24.0449 0.021832 0.114457 -1.557753
2008-07-24 12:23:18 51°31.554 3°0.911 24.0562 0.021832 0.114471 -1.557753
2008-07-24 12:24:18 51°31.649 3°1.143 24.0482 0.021935 0.11499 -1.557753
2008-07-24 12:25:18 51°31.743 3°1.377 24.061 0.021935 0.114981 -1.557753
2008-07-24 12:26:17 51°31.83 3°1.613 24.076 0.021729 0.113931 -1.557753
2008-07-24 12:27:17 51°31.925 3°1.848 24.0718 0.021523 0.112871 -1.557753
2008-07-24 12:28:18 51°32.023 3°2.084 24.0879 0.02245 0.117633 -1.557753
2008-07-24 12:29:18 51°32.117 3°2.321 24.0776 0.021935 0.114965 -1.557753
2008-07-24 12:30:18 51°32.21 3°2.554 24.0857 0.021935 0.114946 -1.557753
2008-07-24 12:31:17 51°32.302 3°2.785 24.1118 0.022244 0.116532 -1.557753
2008-07-24 12:32:18 51°32.4 3°3.021 24.1118 0.021421 0.112296 -1.557753
2008-07-24 12:33:18 51°32.445 3°3.282 24.1009 0.022758 0.119231 -1.557753
2008-07-24 12:34:18 51°32.426 3°3.568 24.104 0.023479 0.122915 -1.557753
2008-07-24 12:35:17 51°32.338 3°3.824 24.1035 0.021523 0.112757 -1.557753
2008-07-24 12:36:17 51°32.142 3°3.896 24.1216 0.025022 0.130978 -1.592577
2008-07-24 12:37:18 51°31.919 3°3.854 24.1031 0.022758 0.119175 -1.557753
2008-07-24 12:38:18 51°31.717 3°3.701 24.1166 0.022552 0.118152 -1.592577
2008-07-24 12:39:18 51°31.542 3°3.466 24.1624 0.023684 0.124005 -1.557753
2008-07-24 12:40:17 51°31.382 3°3.21 24.1566 0.022552 0.118129 -1.557753
2008-07-24 12:41:18 51°31.22 3°2.939 24.1499 0.023273 0.121871 -1.557753
2008-07-24 12:42:17 51°31.064 3°2.672 24.171 0.021421 0.112284 -1.592577
2008-07-24 12:43:18 51°30.917 3°2.377 24.1813 0.021421 0.112294 -1.557753
2008-07-24 12:44:17 51°30.781 3°2.082 24.1819 0.021729 0.113877 -1.557753
2008-07-24 12:45:18 51°30.64 3°1.779 24.1656 0.022655 0.118644 -1.592577
2008-07-24 12:46:18 51°30.501 3°1.481 24.1647 0.021626 0.113336 -1.557753
2008-07-24 12:47:17 51°30.374 3°1.18 24.2057 0.021935 0.114917 -1.557753
2008-07-24 12:48:18 51°30.243 3°0.868 24.231 0.021421 0.112243 -1.592577
2008-07-24 12:49:18 51°30.115 3°0.56 24.2077 0.021729 0.113831 -1.557753
2008-07-24 12:50:18 51°29.991 3°0.247 24.2256 0.021009 0.110106 -1.592577
2008-07-24 12:51:17 51°29.866 2°59.942 24.2287 0.02245 0.11752 -1.557753
2008-07-24 12:52:18 51°29.736 2°59.63 24.2468 0.021523 0.112758 -1.557753
2008-07-24 12:53:17 51°29.612 2°59.323 24.2417 0.021729 0.113783 -1.557753
2008-07-24 12:54:18 51°29.491 2°58.997 24.2343 0.021215 0.111128 -1.557753
2008-07-24 12:55:18 51°29.372 2°58.678 24.2598 0.020803 0.109007 -1.557753
2008-07-24 12:56:18 51°29.25 2°58.361 24.2362 0.021626 0.113242 -1.557753
2008-07-24 12:57:18 51°29.13 2°58.041 24.2624 0.021523 0.112688 -1.557753
2008-07-24 12:58:18 51°29.012 2°57.719 24.27 0.021935 0.114783 -1.557753
2008-07-24 12:59:18 51°28.894 2°57.398 24.2904 0.022244 0.116399 -1.557753
2008-07-24 13:00:18 51°28.773 2°57.078 24.2756 0.021626 0.113187 -1.557753
2008-07-24 13:01:18 51°28.655 2°56.757 24.2867 0.021832 0.114246 -1.557753
2008-07-24 13:02:17 51°28.536 2°56.441 24.2927 0.021421 0.112115 -1.557753
2008-07-24 13:03:18 51°28.42 2°56.109 24.3012 0.022038 0.11528 -1.557753
2008-07-24 13:04:18 51°28.31 2°55.778 24.3199 0.023273 0.121631 -1.557753
2008-07-24 13:05:18 51°28.201 2°55.446 24.3192 0.023479 0.122657 -1.557753
2008-07-24 13:06:18 51°28.094 2°55.111 24.3316 0.021832 0.114163 -1.557753
2008-07-24 13:07:17 51°27.99 2°54.782 24.3376 0.02245 0.117354 -1.557753
2008-07-24 13:08:18 51°27.885 2°54.441 24.3462 0.021729 0.113664 -1.557753
2008-07-24 13:09:17 51°27.775 2°54.118 24.3398 0.022141 0.115733 -1.557753
2008-07-24 13:10:18 51°27.667 2°53.783 24.3288 0.021421 0.112052 -1.592577
2008-07-24 13:11:17 51°27.56 2°53.466 24.3682 0.02245 0.117318 -1.592577
2008-07-24 13:12:18 51°27.445 2°53.142 24.3391 0.021626 0.113092 -1.557753
2008-07-24 13:13:17 51°27.334 2°52.83 24.3702 0.021935 0.114675 -1.557753
2008-07-24 13:14:18 51°27.213 2°52.512 24.3833 0.022038 0.115186 -1.557753
2008-07-24 13:15:17 51°27.094 2°52.209 24.3362 0.022655 0.11835 -1.557753
2008-07-24 13:16:18 51°26.969 2°51.898 24.3802 0.021729 0.11358 -1.557753
2008-07-24 13:17:18 51°26.845 2°51.597 24.3831 0.021832 0.114089 -1.557753
2008-07-24 13:18:17 51°26.723 2°51.298 24.3766 0.021935 0.114625 -1.557753
2008-07-24 13:19:18 51°26.598 2°50.99 24.4161 0.021832 0.114094 -1.557753
2008-07-24 13:20:18 51°26.478 2°50.687 24.3805 0.02245 0.117241 -1.557753
2008-07-24 13:21:17 51°26.362 2°50.384 24.3703 0.022655 0.118302 -1.592577
2008-07-24 13:22:18 51°26.24 2°50.075 24.4178 0.021729 0.113515 -1.557753
2008-07-24 13:23:18 51°26.094 2°49.802 24.4249 0.021935 0.114554 -1.557753
2008-07-24 13:24:18 51°25.928 2°49.555 24.433 0.020906 0.109262 -1.557753
2008-07-24 13:25:18 51°25.762 2°49.309 24.3948 0.020803 0.108743 -1.557753
2008-07-24 13:26:18 51°25.598 2°49.061 24.4127 0.021523 0.112429 -1.592577
2008-07-24 13:27:18 51°25.434 2°48.81 24.4419 0.022347 0.116629 -1.557753
2008-07-24 13:28:18 51°25.271 2°48.558 24.4596 0.02245 0.117154 -1.557753
2008-07-24 13:29:18 51°25.107 2°48.306 24.4512 0.022552 0.117666 -1.557753
2008-07-24 13:30:17 51°24.949 2°48.051 24.4578 0.022758 0.11872 -1.557753
2008-07-24 13:31:18 51°24.786 2°47.785 24.4382 0.021626 0.112895 -1.557753
2008-07-24 13:32:18 51°24.621 2°47.539 24.4578 0.021832 0.113941 -1.557753
2008-07-24 13:33:18 51°24.455 2°47.293 24.4905 0.022244 0.116043 -1.557753
2008-07-24 13:34:18 51°24.29 2°47.042 24.4884 0.023273 0.121288 -1.592577
2008-07-24 13:35:17 51°24.122 2°46.812 24.4889 0.021729 0.11337 -1.557753
2008-07-24 13:36:17 51°23.914 2°46.684 24.4687 0.021318 0.111244 -1.557753
2008-07-24 13:37:17 51°23.704 2°46.565 24.488 0.021832 0.113877 -1.592577
2008-07-24 13:38:18 51°23.492 2°46.445 24.4862 0.021318 0.111233 -1.592577
2008-07-24 13:39:18 51°23.28 2°46.38 24.5248 0.021626 0.112806 -1.592577
2008-07-24 13:40:17 51°23.085 2°46.46 24.5228 0.021009 0.109637 -1.557753
2008-07-24 13:41:18 51°22.905 2°46.628 24.4905 0.020906 0.109098 -1.557753
2008-07-24 13:42:18 51°22.72 2°46.784 24.5153 0.021729 0.113312 -1.557753
2008-07-24 13:43:18 51°22.532 2°46.937 24.5211 0.022244 0.115926 -1.557753
2008-07-24 13:44:18 51°22.342 2°47.09 24.5114 0.021729 0.113302 -1.557753
2008-07-24 13:45:18 51°22.154 2°47.247 24.5222 0.021112 0.11012 -1.557753
2008-07-24 13:46:18 51°21.967 2°47.402 24.5396 0.022244 0.115889 -1.557753
2008-07-24 13:47:18 51°21.781 2°47.557 24.5257 0.021318 0.111135 -1.557753
2008-07-24 13:48:18 51°21.595 2°47.704 24.5279 0.021112 0.110075 -1.557753
2008-07-24 13:49:18 51°21.407 2°47.848 24.5259 0.021935 0.114288 -1.557753
2008-07-24 13:50:18 51°21.217 2°47.989 24.5347 0.021523 0.112156 -1.557753
2008-07-24 13:51:18 51°21.026 2°48.125 24.5552 0.022141 0.115352 -1.557753
2008-07-24 13:52:18 51°20.836 2°48.261 24.5475 0.022038 0.114816 -1.557753
2008-07-24 13:53:17 51°20.653 2°48.387 24.5518 0.021729 0.113208 -1.592577
2008-07-24 13:54:18 51°20.47 2°48.532 24.5698 0.021832 0.113737 -1.557753
2008-07-24 13:55:18 51°20.293 2°48.681 24.575 0.02245 0.11688 -1.557753
2008-07-24 13:56:18 51°20.117 2°48.836 24.5629 0.021523 0.112124 -1.557753
2008-07-24 13:57:18 51°19.939 2°48.987 24.5807 0.021112 0.110024 -1.557753
2008-07-24 13:58:17 51°19.765 2°49.141 24.5663 0.020803 0.108434 -1.557753
2008-07-24 13:59:18 51°19.594 2°49.325 24.5916 0.021626 0.112621 -1.557753
2008-07-24 14:00:18 51°19.42 2°49.499 24.5999 0.021729 0.113134 -1.592577
2008-07-24 14:01:18 51°19.248 2°49.675 24.6006 0.022347 0.116273 -1.592577
2008-07-24 14:02:18 51°19.076 2°49.856 24.5966 0.021523 0.112081 -1.557753
2008-07-24 14:03:17 51°18.912 2°50.049 24.6072 0.022038 0.114687 -1.592577
2008-07-24 14:04:18 51°18.733 2°50.231 24.6011 0.021626 0.112587 -1.557753
2008-07-24 14:05:17 51°18.558 2°50.408 24.5997 0.021112 0.109946 -1.592577
2008-07-24 14:06:18 51°18.381 2°50.594 24.61 0.02142 0.11151 -1.592577
2008-07-24 14:07:18 51°18.205 2°50.771 24.6207 0.021318 0.110979 -1.557753
2008-07-24 14:08:18 51°18.028 2°50.95 24.6349 0.02142 0.111486 -1.557753
2008-07-24 14:09:18 51°17.854 2°51.135 24.6213 0.021935 0.114114 -1.557753
2008-07-24 14:10:18 51°17.686 2°51.328 24.6435 0.02142 0.111475 -1.557753
2008-07-24 14:11:18 51°17.521 2°51.527 24.6532 0.021215 0.110425 -1.557753
2008-07-24 14:12:18 51°17.352 2°51.722 24.6555 0.021215 0.110404 -1.557753
2008-07-24 14:13:18 51°17.18 2°51.909 24.6335 0.021318 0.110926 -1.592577
2008-07-24 14:14:18 51°17.01 2°52.098 24.6729 0.021318 0.110921 -1.592577
2008-07-24 14:15:18 51°16.841 2°52.293 24.6638 0.021523 0.111947 -1.557753
2008-07-24 14:16:17 51°16.671 2°52.478 24.6814 0.021318 0.110903 -1.557753
2008-07-24 14:17:18 51°16.497 2°52.675 24.6662 0.02142 0.111403 -1.557753
2008-07-24 14:18:18 51°16.327 2°52.866 24.6547 0.021112 0.109833 -1.592577
2008-07-24 14:19:18 51°16.152 2°53.048 24.6597 0.021215 0.110353 -1.557753
2008-07-24 14:20:18 51°15.98 2°53.23 24.6752 0.021009 0.10929 -1.557753
2008-07-24 14:21:18 51°15.811 2°53.412 24.698 0.020803 0.108229 -1.557753
2008-07-24 14:22:18 51°15.648 2°53.593 24.6944 0.021935 0.113996 -1.557753
2008-07-24 14:23:18 51°15.501 2°53.762 24.7406 0.021935 0.113982 -1.557753
2008-07-24 14:24:18 51°15.34 2°53.952 24.714 0.020906 0.108724 -1.557753
2008-07-24 14:25:18 51°15.19 2°54.165 24.6763 0.02142 0.111327 -1.592577
2008-07-24 14:26:18 51°15.037 2°54.369 24.7162 0.020494 0.106604 -1.592577
2008-07-24 14:27:18 51°14.894 2°54.549 24.7261 0.022347 0.116043 -1.557753
2008-07-24 14:28:18 51°14.808 2°54.672 24.7384 0.022861 0.118656 -1.557753
2008-07-24 14:29:18 51°14.743 2°54.761 24.7535 0.024199 0.125511 -1.557753
2008-07-24 14:30:18 51°14.681 2°54.844 24.777 0.026257 0.136073 -1.557753
2008-07-24 14:31:18 51°14.573 2°54.927 24.7714 0.022861 0.118631 -1.557753
2008-07-24 14:32:17 51°14.406 2°55.035 24.7431 0.02142 0.111254 -1.557753
2008-07-24 14:33:18 51°14.263 2°55.231 24.7351 0.020597 0.107043 -1.557753
2008-07-24 14:34:18 51°14.163 2°55.383 24.7518 0.021112 0.109648 -1.592577
2008-07-24 14:35:22 51°14.051 2°55.468 24.7424 0.021626 0.112252 -1.557753
2008-07-24 14:36:22 51°13.938 2°55.548 24.7519 0.021009 0.109085 -1.592577
2008-07-24 14:37:22 51°13.859 2°55.602 24.7669 0.02142 0.111175 -1.557753
2008-07-24 14:38:22 51°13.781 2°55.669 24.7708 0.02142 0.111157 -1.557753
2008-07-24 14:39:22 51°13.713 2°55.773 24.7585 0.021318 0.110612 -1.557753
2008-07-24 14:40:22 51°13.667 2°55.878 24.7784 0.021318 0.110597 -1.557753
2008-07-24 14:41:22 51°13.636 2°55.971 24.7849 0.021626 0.112155 -1.592577
2008-07-24 14:42:22 51°13.627 2°56.034 24.8045 0.021215 0.110043 -1.557753
2008-07-24 14:43:22 51°13.623 2°56.048 24.8123 0.021729 0.112652 -1.557753
2008-07-24 14:44:22 51°13.623 2°56.048 24.7579 0.02142 0.111045 -1.592577
2008-07-24 14:45:22 51°13.623 2°56.048 24.7975 0.021935 0.113654 -1.592577